createdAt,value
2024-04-24T00:02:33.235Z,7.74
2024-04-24T00:05:38.089Z,7.66
2024-04-24T00:08:42.823Z,7.57
2024-04-24T00:11:47.454Z,7.65
2024-04-24T00:14:55.035Z,7.65
2024-04-24T00:17:59.653Z,7.62
2024-04-24T00:21:04.403Z,7.72
2024-04-24T00:24:09.283Z,7.63
2024-04-24T00:27:14.311Z,7.59
2024-04-24T00:30:21.875Z,7.71
2024-04-24T00:33:26.530Z,7.74
2024-04-24T00:36:31.664Z,7.69
2024-04-24T00:39:36.341Z,7.62
2024-04-24T00:42:40.887Z,7.61
2024-04-24T00:45:48.358Z,7.53
2024-04-24T00:48:54.134Z,7.55
2024-04-24T00:51:58.907Z,7.54
2024-04-24T00:55:03.445Z,7.53
2024-04-24T00:58:08.851Z,7.53
2024-04-24T01:01:18.415Z,7.49
2024-04-24T01:04:23.253Z,7.48
2024-04-24T01:07:28.222Z,7.44
2024-04-24T01:10:33.216Z,7.52
2024-04-24T01:13:38.153Z,7.57
2024-04-24T01:16:48.419Z,7.52
2024-04-24T01:19:56.157Z,7.54
2024-04-24T01:23:32.117Z,7.62
2024-04-24T01:26:47.880Z,7.55
2024-04-24T01:29:53.189Z,7.57
2024-04-24T01:32:58.192Z,7.48
2024-04-24T01:36:03.167Z,7.50
2024-04-24T01:39:08.193Z,7.54
2024-04-24T01:42:15.660Z,7.52
2024-04-24T01:45:20.739Z,7.59
2024-04-24T01:48:25.519Z,7.54
2024-04-24T01:51:30.228Z,7.58
2024-04-24T01:54:34.900Z,7.55
2024-04-24T01:57:42.264Z,7.52
2024-04-24T02:00:46.884Z,7.54
2024-04-24T02:03:51.995Z,7.55
2024-04-24T02:06:56.590Z,7.52
2024-04-24T02:10:01.445Z,7.64
2024-04-24T02:13:08.648Z,7.47
2024-04-24T02:16:13.347Z,7.45
2024-04-24T02:19:17.860Z,7.48
2024-04-24T02:22:22.773Z,7.52
2024-04-24T02:25:39.147Z,7.47
2024-04-24T02:28:46.320Z,7.45
2024-04-24T02:31:51.019Z,7.47
2024-04-24T02:34:55.734Z,7.47
2024-04-24T02:38:00.509Z,7.45
2024-04-24T02:41:05.063Z,7.41
2024-04-24T02:44:12.461Z,7.38
2024-04-24T02:47:17.536Z,7.42
2024-04-24T02:50:22.263Z,7.40
2024-04-24T02:53:27.087Z,7.39
2024-04-24T02:56:31.784Z,7.40
2024-04-24T02:59:39.195Z,7.49
2024-04-24T03:02:43.800Z,7.49
2024-04-24T03:05:48.604Z,7.47
2024-04-24T03:08:55.406Z,7.50
2024-04-24T03:12:00.245Z,7.40
2024-04-24T03:15:08.655Z,7.31
2024-04-24T03:18:13.311Z,7.37
2024-04-24T03:21:23.353Z,7.36
2024-04-24T03:24:28.215Z,7.43
2024-04-24T03:27:32.901Z,7.41
2024-04-24T03:30:40.101Z,7.53
2024-04-24T03:33:44.855Z,7.33
2024-04-24T03:36:50.154Z,7.30
2024-04-24T03:39:54.839Z,7.46
2024-04-24T03:42:59.587Z,7.38
2024-04-24T03:46:07.135Z,7.28
2024-04-24T03:49:11.836Z,7.21
2024-04-24T03:52:16.520Z,7.46
2024-04-24T03:55:21.493Z,7.54
2024-04-24T03:58:26.086Z,7.34
2024-04-24T04:01:34.539Z,7.22
2024-04-24T04:04:39.088Z,7.25
2024-04-24T04:07:44.007Z,7.24
2024-04-24T04:10:49.242Z,7.20
2024-04-24T04:13:55.162Z,7.22
2024-04-24T04:17:02.693Z,7.16
2024-04-24T04:20:08.325Z,7.24
2024-04-24T04:23:13.740Z,7.33
2024-04-24T04:26:18.514Z,7.10
2024-04-24T04:29:23.174Z,7.06
2024-04-24T04:32:30.671Z,7.23
2024-04-24T04:35:35.267Z,7.13
2024-04-24T04:38:39.915Z,7.24
2024-04-24T04:41:44.401Z,7.25
2024-04-24T04:44:49.121Z,7.24
2024-04-24T04:47:56.398Z,7.31
2024-04-24T04:51:03.974Z,7.24
2024-04-24T04:54:08.757Z,7.33
2024-04-24T04:57:13.397Z,7.40
2024-04-24T05:00:18.350Z,7.47
2024-04-24T05:03:25.778Z,7.56
2024-04-24T05:06:30.723Z,7.69
2024-04-24T05:09:36.659Z,7.52
2024-04-24T05:12:41.478Z,7.53
2024-04-24T05:15:46.000Z,7.50
2024-04-24T05:18:54.457Z,7.63
2024-04-24T05:21:59.195Z,7.60
2024-04-24T05:25:03.756Z,7.65
2024-04-24T05:28:26.198Z,7.66
2024-04-24T05:31:30.808Z,7.65
2024-04-24T05:34:38.389Z,7.63
2024-04-24T05:37:43.057Z,7.71
2024-04-24T05:40:47.757Z,7.78
2024-04-24T05:43:52.314Z,7.82
2024-04-24T05:46:58.523Z,7.93
2024-04-24T05:50:06.138Z,8.03
2024-04-24T05:53:11.034Z,8.15
2024-04-24T05:56:15.802Z,8.16
2024-04-24T05:59:20.962Z,8.10
2024-04-24T06:02:25.645Z,8.13
2024-04-24T06:05:32.982Z,8.18
2024-04-24T06:08:37.660Z,8.33
2024-04-24T06:11:42.619Z,8.29
2024-04-24T06:14:47.440Z,8.50
2024-04-24T06:17:54.886Z,8.55
2024-04-24T06:21:04.125Z,8.88
2024-04-24T06:24:12.521Z,9.07
2024-04-24T06:27:17.697Z,9.31
2024-04-24T06:30:22.398Z,9.34
2024-04-24T06:33:27.167Z,9.55
2024-04-24T06:36:34.522Z,9.70
2024-04-24T06:39:39.455Z,9.88
2024-04-24T06:42:44.004Z,9.80
2024-04-24T06:45:49.051Z,9.79
2024-04-24T06:48:53.826Z,9.99
2024-04-24T06:52:01.029Z,9.95
2024-04-24T06:55:05.748Z,10.06
2024-04-24T06:58:10.238Z,10.07
2024-04-24T07:01:15.114Z,10.19
2024-04-24T07:04:19.866Z,10.16
2024-04-24T07:07:27.365Z,10.00
2024-04-24T07:10:32.068Z,10.17
2024-04-24T07:13:36.814Z,10.10
2024-04-24T07:16:42.615Z,10.23
2024-04-24T07:19:48.105Z,10.31
2024-04-24T07:22:55.952Z,10.29
2024-04-24T07:26:01.052Z,10.32
2024-04-24T07:29:06.171Z,10.29
2024-04-24T07:32:11.137Z,10.47
2024-04-24T07:35:16.574Z,10.67
2024-04-24T07:38:24.288Z,10.81
2024-04-24T07:41:28.996Z,10.71
2024-04-24T07:44:33.728Z,10.85
2024-04-24T07:47:42.823Z,10.92
2024-04-24T07:50:48.511Z,10.97
2024-04-24T07:53:55.907Z,11.11
2024-04-24T07:57:00.751Z,11.00
2024-04-24T08:00:05.668Z,11.11
2024-04-24T08:03:10.641Z,11.25
2024-04-24T08:06:15.198Z,11.25
2024-04-24T08:09:22.707Z,11.35
2024-04-24T08:12:27.549Z,11.18
2024-04-24T08:15:34.413Z,11.24
2024-04-24T08:18:39.797Z,11.42
2024-04-24T08:21:44.535Z,11.57
2024-04-24T08:24:52.098Z,11.50
2024-04-24T08:27:56.634Z,11.43
2024-04-24T08:31:09.943Z,11.89
2024-04-24T08:34:16.329Z,12.06
2024-04-24T08:37:20.996Z,12.12
2024-04-24T08:40:28.474Z,12.08
2024-04-24T08:43:33.248Z,12.19
2024-04-24T08:46:38.043Z,12.33
2024-04-24T08:49:45.738Z,12.26
2024-04-24T08:52:56.563Z,11.96
2024-04-24T08:56:07.971Z,11.89
2024-04-24T08:59:19.325Z,11.93
2024-04-24T09:02:28.673Z,12.01
2024-04-24T09:05:37.209Z,12.12
2024-04-24T09:08:43.838Z,12.43
2024-04-24T09:11:52.289Z,12.64
2024-04-24T09:14:57.115Z,12.77
2024-04-24T09:18:01.996Z,12.70
2024-04-24T09:21:08.168Z,12.70
2024-04-24T09:24:14.398Z,12.61
2024-04-24T09:27:23.478Z,12.64
2024-04-24T09:30:31.432Z,12.44
2024-04-24T09:33:36.267Z,12.20
2024-04-24T09:36:43.367Z,12.38
2024-04-24T09:39:48.398Z,12.30
2024-04-24T09:42:56.057Z,12.21
2024-04-24T09:46:01.236Z,12.41
2024-04-24T09:49:07.636Z,12.25
2024-04-24T09:52:17.878Z,12.38
2024-04-24T09:55:29.300Z,12.22
2024-04-24T09:58:39.029Z,12.21
2024-04-24T10:01:48.196Z,12.19
2024-04-24T10:04:59.068Z,12.61
2024-04-24T10:08:08.936Z,12.62
2024-04-24T10:11:17.330Z,12.50
2024-04-24T10:14:27.052Z,12.82
2024-04-24T10:17:33.539Z,12.93
2024-04-24T10:20:40.727Z,13.20
2024-04-24T10:23:45.697Z,13.36
2024-04-24T10:26:52.947Z,13.62
2024-04-24T10:30:00.480Z,13.87
2024-04-24T10:33:08.001Z,13.99
2024-04-24T10:36:12.928Z,13.91
2024-04-24T10:39:17.993Z,13.93
2024-04-24T10:42:22.800Z,13.42
2024-04-24T10:45:30.824Z,13.25
2024-04-24T10:49:00.922Z,13.20
2024-04-24T10:52:06.294Z,13.15
2024-04-24T10:55:12.789Z,12.97
2024-04-24T10:58:24.579Z,13.18
2024-04-24T11:01:42.489Z,12.78
2024-04-24T11:04:55.509Z,12.80
2024-04-24T11:08:02.109Z,12.91
2024-04-24T11:11:08.780Z,13.16
2024-04-24T11:14:15.295Z,13.23
2024-04-24T11:17:27.598Z,13.29
2024-04-24T11:20:37.769Z,13.28
2024-04-24T11:23:49.313Z,13.24
2024-04-24T11:26:53.955Z,13.24
2024-04-24T11:29:58.921Z,13.21
2024-04-24T11:33:06.665Z,13.53
2024-04-24T11:36:11.441Z,13.34
2024-04-24T11:39:20.084Z,13.72
2024-04-24T11:42:26.075Z,13.85
2024-04-24T11:45:30.838Z,14.15
2024-04-24T11:48:46.749Z,14.14
2024-04-24T11:51:55.088Z,14.23
2024-04-24T11:54:59.580Z,14.31
2024-04-24T11:58:11.813Z,14.54
2024-04-24T12:01:19.123Z,14.52
2024-04-24T12:04:27.458Z,14.56
2024-04-24T12:07:33.092Z,13.98
2024-04-24T12:10:38.185Z,14.02
2024-04-24T12:13:44.125Z,13.32
2024-04-24T12:16:49.330Z,13.36
2024-04-24T12:19:56.949Z,13.42
2024-04-24T12:23:03.145Z,13.14
2024-04-24T12:26:08.787Z,13.03
2024-04-24T12:29:15.632Z,13.32
2024-04-24T12:32:21.507Z,13.08
2024-04-24T12:35:29.281Z,13.11
2024-04-24T12:38:34.014Z,13.30
2024-04-24T12:41:38.836Z,13.39
2024-04-24T12:44:45.064Z,13.74
2024-04-24T12:47:50.009Z,13.80
2024-04-24T12:50:57.915Z,13.68
2024-04-24T12:54:03.099Z,13.51
2024-04-24T12:57:09.859Z,13.60
2024-04-24T13:00:18.378Z,13.09
2024-04-24T13:03:26.523Z,13.10
2024-04-24T13:06:34.751Z,12.98
2024-04-24T13:09:39.469Z,13.25
2024-04-24T13:12:46.548Z,13.25
2024-04-24T13:15:51.721Z,13.39
2024-04-24T13:18:56.851Z,13.65
2024-04-24T13:22:05.246Z,13.86
2024-04-24T13:25:10.453Z,13.30
2024-04-24T13:28:14.981Z,13.46
2024-04-24T13:31:19.749Z,14.05
2024-04-24T13:34:24.674Z,14.24
2024-04-24T13:37:31.831Z,14.10
2024-04-24T13:40:36.545Z,14.27
2024-04-24T13:43:41.483Z,13.86
2024-04-24T13:46:46.156Z,13.79
2024-04-24T13:49:51.110Z,14.28
2024-04-24T13:52:58.557Z,14.73
2024-04-24T13:56:03.950Z,14.80
2024-04-24T13:59:08.538Z,14.57
2024-04-24T14:02:13.345Z,14.27
2024-04-24T14:05:18.125Z,14.14
2024-04-24T14:08:27.819Z,13.94
2024-04-24T14:11:34.608Z,13.97
2024-04-24T14:14:39.771Z,13.40
2024-04-24T14:17:44.866Z,13.41
2024-04-24T14:20:49.937Z,13.62
2024-04-24T14:23:59.142Z,13.72
2024-04-24T14:27:03.731Z,13.87
2024-04-24T14:30:09.689Z,14.12
2024-04-24T14:33:14.325Z,13.95
2024-04-24T14:36:20.456Z,13.77
2024-04-24T14:39:30.141Z,13.54
2024-04-24T14:42:34.884Z,13.09
2024-04-24T14:45:39.597Z,12.95
2024-04-24T14:48:44.491Z,13.03
2024-04-24T14:51:49.961Z,12.88
2024-04-24T14:54:57.469Z,12.83
2024-04-24T14:58:02.252Z,12.72
2024-04-24T15:01:08.184Z,12.78
2024-04-24T15:04:14.544Z,12.73
2024-04-24T15:07:19.473Z,12.60
2024-04-24T15:10:27.394Z,12.47
2024-04-24T15:13:31.956Z,12.48
2024-04-24T15:16:36.668Z,12.35
2024-04-24T15:19:42.424Z,12.33
2024-04-24T15:22:48.002Z,12.14
2024-04-24T15:25:55.898Z,12.14
2024-04-24T15:29:00.763Z,11.92
2024-04-24T15:32:05.804Z,12.04
2024-04-24T15:35:10.925Z,11.79
2024-04-24T15:38:17.078Z,11.78
2024-04-24T15:41:24.350Z,11.63
2024-04-24T15:44:29.090Z,11.47
2024-04-24T15:47:34.125Z,11.34
2024-04-24T15:50:39.387Z,11.09
2024-04-24T15:53:44.200Z,11.16
2024-04-24T15:56:51.652Z,10.92
2024-04-24T15:59:56.889Z,10.80
2024-04-24T16:03:01.751Z,10.66
2024-04-24T16:06:06.933Z,10.48
2024-04-24T16:09:11.583Z,10.19
2024-04-24T16:12:19.047Z,10.30
2024-04-24T16:15:23.603Z,10.01
2024-04-24T16:18:36.238Z,9.67
2024-04-24T16:21:47.418Z,9.73
2024-04-24T16:24:52.279Z,9.80
2024-04-24T16:27:59.703Z,9.89
2024-04-24T16:31:04.237Z,9.90
2024-04-24T16:34:09.189Z,9.97
2024-04-24T16:37:13.880Z,9.93
2024-04-24T16:40:18.564Z,9.92
2024-04-24T16:43:25.894Z,9.86
2024-04-24T16:46:30.580Z,10.00
2024-04-24T16:49:36.860Z,9.90
2024-04-24T16:52:41.557Z,9.88
2024-04-24T16:55:48.451Z,9.96
2024-04-24T16:58:57.155Z,10.01
2024-04-24T17:02:02.289Z,10.07
2024-04-24T17:05:11.130Z,10.17
2024-04-24T17:08:16.463Z,10.17
2024-04-24T17:11:21.351Z,10.15
2024-04-24T17:14:30.825Z,10.12
2024-04-24T17:17:36.483Z,10.02
2024-04-24T17:20:42.063Z,9.90
2024-04-24T17:23:47.249Z,9.81
2024-04-24T17:26:52.990Z,9.82
2024-04-24T17:30:00.348Z,9.85
2024-04-24T17:33:04.990Z,9.74
2024-04-24T17:36:12.580Z,9.67
2024-04-24T17:39:17.555Z,9.55
2024-04-24T17:42:22.114Z,9.42
2024-04-24T17:45:30.377Z,9.38
2024-04-24T17:48:35.266Z,9.21
2024-04-24T17:51:40.361Z,9.19
2024-04-24T17:54:44.972Z,9.15
2024-04-24T17:57:49.628Z,9.11
2024-04-24T18:00:57.087Z,9.09
2024-04-24T18:04:01.807Z,9.14
2024-04-24T18:07:06.400Z,9.09
2024-04-24T18:10:11.396Z,9.06
2024-04-24T18:13:16.824Z,9.03
2024-04-24T18:16:23.948Z,9.05
2024-04-24T18:19:28.860Z,9.02
2024-04-24T18:22:33.433Z,8.97
2024-04-24T18:25:38.604Z,9.00
2024-04-24T18:28:43.256Z,8.94
2024-04-24T18:31:50.872Z,8.82
2024-04-24T18:34:55.497Z,8.70
2024-04-24T18:38:00.604Z,8.68
2024-04-24T18:41:05.312Z,8.65
2024-04-24T18:44:10.496Z,8.66
2024-04-24T18:47:19.624Z,8.54
2024-04-24T18:50:25.930Z,8.50
2024-04-24T18:53:30.609Z,8.36
2024-04-24T18:56:35.498Z,8.33
2024-04-24T18:59:40.731Z,8.38
2024-04-24T19:02:49.734Z,8.34
2024-04-24T19:05:54.936Z,8.34
2024-04-24T19:09:00.162Z,8.31
2024-04-24T19:12:06.148Z,8.24
2024-04-24T19:15:11.935Z,8.28
2024-04-24T19:18:19.285Z,8.31
2024-04-24T19:21:23.931Z,8.29
2024-04-24T19:24:28.501Z,8.31
2024-04-24T19:27:40.564Z,8.29
2024-04-24T19:30:46.457Z,8.31
2024-04-24T19:33:53.942Z,8.29
2024-04-24T19:36:58.965Z,8.26
2024-04-24T19:40:04.662Z,8.27
2024-04-24T19:43:09.516Z,8.27
2024-04-24T19:46:14.075Z,8.21
2024-04-24T19:49:21.974Z,8.18
2024-04-24T19:52:26.574Z,8.08
2024-04-24T19:55:36.113Z,8.03
2024-04-24T19:58:41.143Z,8.05
2024-04-24T20:01:49.371Z,8.08
2024-04-24T20:04:56.812Z,8.13
2024-04-24T20:08:01.784Z,8.07
2024-04-24T20:11:08.462Z,8.00
2024-04-24T20:14:14.339Z,8.02
2024-04-24T20:17:20.557Z,8.03
2024-04-24T20:20:30.602Z,8.03
2024-04-24T20:23:36.141Z,8.03
2024-04-24T20:26:41.511Z,7.97
2024-04-24T20:29:46.373Z,7.94
2024-04-24T20:32:51.984Z,7.97
2024-04-24T20:36:01.827Z,8.05
2024-04-24T20:39:10.354Z,8.07
2024-04-24T20:42:15.599Z,8.04
2024-04-24T20:45:21.076Z,8.06
2024-04-24T20:48:26.580Z,7.99
2024-04-24T20:51:34.259Z,7.92
2024-04-24T20:54:41.178Z,7.90
2024-04-24T20:57:46.230Z,7.86
2024-04-24T21:00:51.921Z,7.89
2024-04-24T21:03:57.409Z,7.93
2024-04-24T21:07:17.502Z,7.95
2024-04-24T21:10:22.864Z,7.95
2024-04-24T21:13:28.558Z,7.96
2024-04-24T21:16:33.587Z,7.92
2024-04-24T21:19:38.374Z,7.87
2024-04-24T21:22:48.137Z,7.83
2024-04-24T21:25:53.104Z,7.73
2024-04-24T21:28:57.833Z,7.64
2024-04-24T21:32:02.775Z,7.65
2024-04-24T21:35:07.934Z,7.63
2024-04-24T21:38:15.461Z,7.58
2024-04-24T21:41:21.987Z,7.54
2024-04-24T21:44:27.363Z,7.48
2024-04-24T21:47:32.241Z,7.42
2024-04-24T21:50:37.360Z,7.29
2024-04-24T21:53:45.365Z,7.21
2024-04-24T21:56:50.301Z,7.13
2024-04-24T21:59:55.103Z,7.06
2024-04-24T22:03:00.150Z,6.89
2024-04-24T22:06:05.187Z,6.88
2024-04-24T22:09:12.526Z,6.91
2024-04-24T22:12:17.494Z,6.82
2024-04-24T22:15:22.818Z,6.81
2024-04-24T22:18:29.352Z,6.79
2024-04-24T22:21:53.970Z,6.73
2024-04-24T22:25:01.948Z,6.67
2024-04-24T22:28:07.462Z,6.61
2024-04-24T22:31:14.472Z,6.63
2024-04-24T22:34:19.882Z,6.64
2024-04-24T22:37:24.879Z,6.58
2024-04-24T22:40:33.766Z,6.66
2024-04-24T22:43:39.706Z,6.69
2024-04-24T22:46:44.713Z,6.69
2024-04-24T22:49:49.818Z,6.69
2024-04-24T22:52:54.855Z,6.70
2024-04-24T22:56:02.554Z,6.69
2024-04-24T22:59:07.710Z,6.69
2024-04-24T23:02:13.076Z,6.69
2024-04-24T23:05:18.069Z,6.68
2024-04-24T23:08:24.955Z,6.65
2024-04-24T23:11:33.424Z,6.68
2024-04-24T23:14:38.602Z,6.68
2024-04-24T23:17:45.324Z,6.68
2024-04-24T23:20:50.575Z,6.67
2024-04-24T23:23:55.504Z,6.61
2024-04-24T23:27:02.714Z,6.63
2024-04-24T23:30:08.468Z,6.61
2024-04-24T23:33:13.074Z,6.56
2024-04-24T23:36:17.805Z,6.53
2024-04-24T23:39:22.530Z,6.48
2024-04-24T23:42:29.908Z,6.44
2024-04-24T23:45:35.514Z,6.37
2024-04-24T23:48:40.350Z,6.29
2024-04-24T23:55:07.589Z,6.18
2024-04-24T23:58:15.656Z,6.06
